< < Back
Terminal Aerodrome Forecast


Current Version              Previous Versions:   1  2  3  4  5  6  7  8  9  

Terminal Aerodrome Forecast

416
FTUS44 KMRX 052335
TAFCHA
TAF
KCHA 052335Z 0600/0624 25008KT P6SM BKN060
     FM060800 VRB02KT 4SM BR SCT005 BKN020
     FM061330 24006KT P6SM SCT030 SCT080
     FM061800 22007KT P6SM SCT045=



Latest METAR

839
SAUS80 KWBC 061800 RRB
MTRCHA
METAR KCHA 061753Z VRB05KT 10SM SCT035 BKN250 29/19 A3015 RMK AO2 SLP202
MDT CU S T02940194 10300 20211 58006


USA.gov is the U.S. government's official web portal to all federal, state and local government web resources and services.